Edgerton, WY (82635)

11:38 AM MDT on September 19, 2014 (GMT -0600)
APRSWXNET Midwest WY US | Change Station
CLOSE
Current Station
Personal Weather Station
Location: Midwest, WY
Elevation: 4865 ft
Nearby Weather Stations

Elev 4865 ft 43.41 °N, 106.28 °W | Updated 39 minutes ago

Partly Cloudy
Partly Cloudy
75 °F
Feels Like 77 °F
N
6
Wind Variable Wind from South
Gusts 11.0 mph

Today
High -- | Low -- °F
--% Chance of Precip.
Yesterday
High -- | Low -- °F
Precip. -- in
6:49 AM 7:07 PM
Waning Crescent, 18% visible
Pressure 29.82 in
Visibility 10.0 miles
Clouds Clear
Heat Index 77 °F
Dew Point 48 °F
Humidity 38%
Rainfall 0.00 in
Snow Depth 0 in , 0 in , 0 in
UV 5 out of 12
Pollen 5.80 out of 12
Air Quality Not available.
Flu Activity Not available.
METAR KCPR 191653Z 29010KT 10SM CLR 25/06 A3001 RMK AO2 SLP096 T02500061

More Conditions Fewer Conditions

Pressure 29.82 in
Visibility 10.0 miles
Clouds Clear
Heat Index 77 °F
Dew Point 48 °F
Humidity 38%
Rainfall 0.00 in
Snow Depth 0 in , 0 in , 0 in
UV 5 out of 12
Pollen 5.80 out of 12
Air Quality Not available.
Flu Activity Not available.
METAR KCPR 191653Z 29010KT 10SM CLR 25/06 A3001 RMK AO2 SLP096 T02500061

More Conditions Fewer Conditions

10-Day Weather Forecast

Almanac

Astronomy

Sep. 19, 2014 Rise Set
Actual Time 6:49 AM MDT 7:07 PM MDT
Civil Twilight 6:20 AM MDT 7:36 PM MDT
Nautical Twilight 5:46 AM MDT 8:09 PM MDT
Astronomical Twilight 5:12 AM MDT 8:44 PM MDT
Moon 2:30 AM MDT 4:43 PM MDT
Length of Visible Light 13h 15m
Length of Day
12h 18m
Tomorrow will be 2m 55s shorter.
Waning Crescent, 18% of the Moon is Illuminated
Today
Waning Crescent
Sep 24
New
Oct 1
First Quarter
Oct 8
Full
Oct 15
Last Quarter

Today's Extremes

State Highs State Lows

Community

WunderPhotos

Upload Photos

1,754,663 photos uploaded!

Nearby

Snow Depth

Station Depth Elevation
Big Sandy Opening 0 in 9080 ft
Townsend Creek 0 in 8700 ft
Sylvan Lake 0 in 8420 ft
South Brush Creek 0 in 8440 ft
Sand Lake 0 in 10050 ft

Earthquake Activity

City Distance Mag. Time & Date
No recent earthquake activity has been reported nearby.
Minimum magnitude displayed is 2.5.

Coastal Water Temperatures

Place Temperature
No Stations Reporting

Nearby Weather Stations